sensor_id;sensor_type;location;lat;lon;timestamp;temperature;humidity
25914;DHT22;13718;50.922;5.346;2024-03-23T00:56:09;7.40;99.90
25914;DHT22;13718;50.922;5.346;2024-03-23T00:58:35;7.40;99.90
25914;DHT22;13718;50.922;5.346;2024-03-23T01:01:00;7.50;99.90
25914;DHT22;13718;50.922;5.346;2024-03-23T01:03:27;7.50;99.90
25914;DHT22;13718;50.922;5.346;2024-03-23T01:05:53;7.50;99.90
25914;DHT22;13718;50.922;5.346;2024-03-23T01:08:19;7.50;99.90
25914;DHT22;13718;50.922;5.346;2024-03-23T01:10:54;7.50;99.90
25914;DHT22;13718;50.922;5.346;2024-03-23T01:13:20;7.50;99.90
25914;DHT22;13718;50.922;5.346;2024-03-23T01:15:48;7.60;99.90
25914;DHT22;13718;50.922;5.346;2024-03-23T01:18:13;7.60;99.90
25914;DHT22;13718;50.922;5.346;2024-03-23T01:20:39;7.60;99.90
25914;DHT22;13718;50.922;5.346;2024-03-23T01:23:05;7.60;99.90
25914;DHT22;13718;50.922;5.346;2024-03-23T01:25:30;7.60;99.90
25914;DHT22;13718;50.922;5.346;2024-03-23T01:27:56;7.70;99.90
25914;DHT22;13718;50.922;5.346;2024-03-23T01:30:21;7.70;99.90
25914;DHT22;13718;50.922;5.346;2024-03-23T01:32:47;7.70;99.90
25914;DHT22;13718;50.922;5.346;2024-03-23T01:35:12;7.70;99.90
25914;DHT22;13718;50.922;5.346;2024-03-23T01:37:38;7.70;99.90
25914;DHT22;13718;50.922;5.346;2024-03-23T01:40:03;7.70;99.90
25914;DHT22;13718;50.922;5.346;2024-03-23T01:42:29;7.70;99.90
25914;DHT22;13718;50.922;5.346;2024-03-23T01:44:55;7.70;99.90
25914;DHT22;13718;50.922;5.346;2024-03-23T01:47:20;7.80;99.90
25914;DHT22;13718;50.922;5.346;2024-03-23T01:49:46;7.80;99.90
25914;DHT22;13718;50.922;5.346;2024-03-23T01:52:11;7.80;99.90
25914;DHT22;13718;50.922;5.346;2024-03-23T01:54:37;8.00;99.90
25914;DHT22;13718;50.922;5.346;2024-03-23T01:57:03;8.00;99.90
25914;DHT22;13718;50.922;5.346;2024-03-23T01:59:29;7.90;99.90
25914;DHT22;13718;50.922;5.346;2024-03-23T02:01:55;7.90;99.90
25914;DHT22;13718;50.922;5.346;2024-03-23T02:04:20;7.70;99.90
25914;DHT22;13718;50.922;5.346;2024-03-23T02:06:46;7.60;99.90
25914;DHT22;13718;50.922;5.346;2024-03-23T02:09:11;7.60;99.90
25914;DHT22;13718;50.922;5.346;2024-03-23T02:11:37;7.60;99.90
25914;DHT22;13718;50.922;5.346;2024-03-23T02:14:02;7.60;99.90
25914;DHT22;13718;50.922;5.346;2024-03-23T02:16:28;7.70;99.90
25914;DHT22;13718;50.922;5.346;2024-03-23T02:18:53;7.90;99.90
25914;DHT22;13718;50.922;5.346;2024-03-23T02:21:19;7.90;99.90
25914;DHT22;13718;50.922;5.346;2024-03-23T02:23:44;7.80;99.90
25914;DHT22;13718;50.922;5.346;2024-03-23T02:26:10;7.70;99.90
25914;DHT22;13718;50.922;5.346;2024-03-23T02:28:35;7.70;99.90
25914;DHT22;13718;50.922;5.346;2024-03-23T02:31:01;7.70;99.90
25914;DHT22;13718;50.922;5.346;2024-03-23T02:33:27;7.70;99.90
25914;DHT22;13718;50.922;5.346;2024-03-23T02:35:55;7.70;99.90
25914;DHT22;13718;50.922;5.346;2024-03-23T02:38:21;7.70;99.90
25914;DHT22;13718;50.922;5.346;2024-03-23T02:40:46;7.80;99.90
25914;DHT22;13718;50.922;5.346;2024-03-23T02:43:12;7.70;99.90
25914;DHT22;13718;50.922;5.346;2024-03-23T02:45:37;7.70;99.90
25914;DHT22;13718;50.922;5.346;2024-03-23T02:48:03;7.60;99.90
25914;DHT22;13718;50.922;5.346;2024-03-23T02:50:29;7.50;99.90
25914;DHT22;13718;50.922;5.346;2024-03-23T02:52:54;7.40;99.90
25914;DHT22;13718;50.922;5.346;2024-03-23T02:55:20;7.40;99.90
25914;DHT22;13718;50.922;5.346;2024-03-23T02:57:45;7.40;99.90
25914;DHT22;13718;50.922;5.346;2024-03-23T03:00:11;7.50;99.90
25914;DHT22;13718;50.922;5.346;2024-03-23T03:02:36;7.40;99.90
25914;DHT22;13718;50.922;5.346;2024-03-23T03:05:03;7.40;99.90
25914;DHT22;13718;50.922;5.346;2024-03-23T03:07:30;7.40;99.90
25914;DHT22;13718;50.922;5.346;2024-03-23T03:09:56;7.40;99.90
25914;DHT22;13718;50.922;5.346;2024-03-23T03:12:21;7.40;99.90
25914;DHT22;13718;50.922;5.346;2024-03-23T03:14:47;7.40;99.90
25914;DHT22;13718;50.922;5.346;2024-03-23T03:17:13;7.40;99.90
25914;DHT22;13718;50.922;5.346;2024-03-23T03:19:40;7.50;99.90
25914;DHT22;13718;50.922;5.346;2024-03-23T03:22:05;7.50;99.90
25914;DHT22;13718;50.922;5.346;2024-03-23T03:24:31;7.50;99.90
25914;DHT22;13718;50.922;5.346;2024-03-23T03:26:56;7.50;99.90
25914;DHT22;13718;50.922;5.346;2024-03-23T03:29:23;7.60;99.90
25914;DHT22;13718;50.922;5.346;2024-03-23T03:31:49;7.60;99.90
25914;DHT22;13718;50.922;5.346;2024-03-23T03:34:15;7.60;99.90
25914;DHT22;13718;50.922;5.346;2024-03-23T03:36:41;7.50;99.90
25914;DHT22;13718;50.922;5.346;2024-03-23T03:39:06;7.50;99.90
25914;DHT22;13718;50.922;5.346;2024-03-23T03:41:32;7.60;99.90
25914;DHT22;13718;50.922;5.346;2024-03-23T03:43:58;7.70;99.90
25914;DHT22;13718;50.922;5.346;2024-03-23T03:46:30;7.70;99.90
25914;DHT22;13718;50.922;5.346;2024-03-23T03:48:56;7.60;99.90
25914;DHT22;13718;50.922;5.346;2024-03-23T03:51:21;7.60;99.90
25914;DHT22;13718;50.922;5.346;2024-03-23T03:53:47;7.50;99.90
25914;DHT22;13718;50.922;5.346;2024-03-23T03:56:12;7.50;99.90
25914;DHT22;13718;50.922;5.346;2024-03-23T03:58:38;7.40;99.90
25914;DHT22;13718;50.922;5.346;2024-03-23T04:01:03;7.40;99.90
25914;DHT22;13718;50.922;5.346;2024-03-23T04:03:29;7.30;99.90
25914;DHT22;13718;50.922;5.346;2024-03-23T04:05:54;7.30;99.90
25914;DHT22;13718;50.922;5.346;2024-03-23T04:08:20;7.30;99.90
25914;DHT22;13718;50.922;5.346;2024-03-23T04:10:46;7.30;99.90
25914;DHT22;13718;50.922;5.346;2024-03-23T04:13:12;7.30;99.90
25914;DHT22;13718;50.922;5.346;2024-03-23T04:15:39;7.40;99.90
25914;DHT22;13718;50.922;5.346;2024-03-23T04:18:05;7.50;99.90
25914;DHT22;13718;50.922;5.346;2024-03-23T04:20:31;7.50;99.90
25914;DHT22;13718;50.922;5.346;2024-03-23T04:22:57;7.40;99.90
25914;DHT22;13718;50.922;5.346;2024-03-23T04:25:23;7.40;99.90
25914;DHT22;13718;50.922;5.346;2024-03-23T04:27:48;7.30;99.90
25914;DHT22;13718;50.922;5.346;2024-03-23T04:30:14;7.30;99.90
25914;DHT22;13718;50.922;5.346;2024-03-23T04:32:40;7.60;99.90
25914;DHT22;13718;50.922;5.346;2024-03-23T04:35:07;7.40;99.90
25914;DHT22;13718;50.922;5.346;2024-03-23T04:37:38;7.30;99.90
25914;DHT22;13718;50.922;5.346;2024-03-23T04:40:06;7.30;99.90
25914;DHT22;13718;50.922;5.346;2024-03-23T04:42:32;7.20;99.90
25914;DHT22;13718;50.922;5.346;2024-03-23T04:44:58;7.00;99.90
25914;DHT22;13718;50.922;5.346;2024-03-23T04:47:23;6.80;99.90
25914;DHT22;13718;50.922;5.346;2024-03-23T04:49:49;6.70;99.90
25914;DHT22;13718;50.922;5.346;2024-03-23T04:52:16;6.80;99.90
25914;DHT22;13718;50.922;5.346;2024-03-23T04:54:41;6.80;99.90
25914;DHT22;13718;50.922;5.346;2024-03-23T04:57:07;6.80;99.90
25914;DHT22;13718;50.922;5.346;2024-03-23T04:59:33;6.90;99.90
25914;DHT22;13718;50.922;5.346;2024-03-23T05:01:58;6.80;99.90
25914;DHT22;13718;50.922;5.346;2024-03-23T05:04:25;6.90;99.90
25914;DHT22;13718;50.922;5.346;2024-03-23T05:06:50;6.90;99.90
25914;DHT22;13718;50.922;5.346;2024-03-23T05:09:16;6.90;99.90
25914;DHT22;13718;50.922;5.346;2024-03-23T05:11:42;7.10;99.90
25914;DHT22;13718;50.922;5.346;2024-03-23T05:14:07;7.30;99.90
25914;DHT22;13718;50.922;5.346;2024-03-23T05:16:33;7.20;99.90
25914;DHT22;13718;50.922;5.346;2024-03-23T05:18:59;7.20;99.90
25914;DHT22;13718;50.922;5.346;2024-03-23T05:21:24;7.00;99.90
25914;DHT22;13718;50.922;5.346;2024-03-23T05:23:50;7.00;99.90
25914;DHT22;13718;50.922;5.346;2024-03-23T05:26:16;6.80;99.90
25914;DHT22;13718;50.922;5.346;2024-03-23T05:28:42;6.80;99.90
25914;DHT22;13718;50.922;5.346;2024-03-23T05:31:07;6.80;99.90
25914;DHT22;13718;50.922;5.346;2024-03-23T05:33:34;6.90;99.90
25914;DHT22;13718;50.922;5.346;2024-03-23T05:36:00;7.00;99.90
25914;DHT22;13718;50.922;5.346;2024-03-23T05:38:26;7.00;99.90
25914;DHT22;13718;50.922;5.346;2024-03-23T05:40:54;7.10;99.90
25914;DHT22;13718;50.922;5.346;2024-03-23T05:43:19;7.10;99.90
25914;DHT22;13718;50.922;5.346;2024-03-23T05:45:45;7.10;99.90
25914;DHT22;13718;50.922;5.346;2024-03-23T05:48:10;7.20;99.90
25914;DHT22;13718;50.922;5.346;2024-03-23T05:50:35;7.10;99.90
25914;DHT22;13718;50.922;5.346;2024-03-23T05:53:01;7.10;99.90
25914;DHT22;13718;50.922;5.346;2024-03-23T05:55:26;7.10;99.90
25914;DHT22;13718;50.922;5.346;2024-03-23T05:57:52;7.10;99.90
25914;DHT22;13718;50.922;5.346;2024-03-23T06:00:18;7.20;99.90
25914;DHT22;13718;50.922;5.346;2024-03-23T06:02:43;7.30;99.90
25914;DHT22;13718;50.922;5.346;2024-03-23T06:05:12;7.30;99.90
25914;DHT22;13718;50.922;5.346;2024-03-23T06:07:37;7.30;99.90
25914;DHT22;13718;50.922;5.346;2024-03-23T06:10:04;7.30;99.90
25914;DHT22;13718;50.922;5.346;2024-03-23T06:12:29;7.30;99.90
25914;DHT22;13718;50.922;5.346;2024-03-23T06:14:55;7.40;99.90
25914;DHT22;13718;50.922;5.346;2024-03-23T06:17:20;7.40;99.90
25914;DHT22;13718;50.922;5.346;2024-03-23T06:19:46;7.40;99.90
25914;DHT22;13718;50.922;5.346;2024-03-23T06:22:11;7.50;99.90
25914;DHT22;13718;50.922;5.346;2024-03-23T06:24:37;7.60;99.90
25914;DHT22;13718;50.922;5.346;2024-03-23T06:27:02;7.70;99.90
25914;DHT22;13718;50.922;5.346;2024-03-23T06:29:28;7.80;99.90
25914;DHT22;13718;50.922;5.346;2024-03-23T06:31:54;7.80;99.90
25914;DHT22;13718;50.922;5.346;2024-03-23T06:34:20;7.80;99.90
25914;DHT22;13718;50.922;5.346;2024-03-23T06:36:46;7.80;99.90
25914;DHT22;13718;50.922;5.346;2024-03-23T06:39:12;7.90;99.90
25914;DHT22;13718;50.922;5.346;2024-03-23T06:41:50;8.10;99.90
25914;DHT22;13718;50.922;5.346;2024-03-23T06:44:16;8.30;99.90
25914;DHT22;13718;50.922;5.346;2024-03-23T06:46:42;8.70;99.90
25914;DHT22;13718;50.922;5.346;2024-03-23T06:49:07;9.00;99.90
25914;DHT22;13718;50.922;5.346;2024-03-23T06:51:32;9.10;99.90
25914;DHT22;13718;50.922;5.346;2024-03-23T06:53:58;9.20;99.90
25914;DHT22;13718;50.922;5.346;2024-03-23T06:56:23;9.50;99.90
25914;DHT22;13718;50.922;5.346;2024-03-23T06:58:49;9.80;99.90
25914;DHT22;13718;50.922;5.346;2024-03-23T07:01:14;10.00;99.90
25914;DHT22;13718;50.922;5.346;2024-03-23T07:03:40;10.20;99.90
25914;DHT22;13718;50.922;5.346;2024-03-23T07:06:05;10.20;99.90
25914;DHT22;13718;50.922;5.346;2024-03-23T07:08:31;10.20;99.90
25914;DHT22;13718;50.922;5.346;2024-03-23T07:10:56;10.10;99.90
25914;DHT22;13718;50.922;5.346;2024-03-23T07:13:22;9.90;99.90
25914;DHT22;13718;50.922;5.346;2024-03-23T07:15:51;9.60;99.90
25914;DHT22;13718;50.922;5.346;2024-03-23T07:18:16;9.40;99.90
25914;DHT22;13718;50.922;5.346;2024-03-23T07:20:42;9.60;99.90
25914;DHT22;13718;50.922;5.346;2024-03-23T07:23:07;10.50;99.90
25914;DHT22;13718;50.922;5.346;2024-03-23T07:25:33;11.50;99.90
25914;DHT22;13718;50.922;5.346;2024-03-23T07:27:58;12.30;99.90
25914;DHT22;13718;50.922;5.346;2024-03-23T07:30:24;12.70;99.90
25914;DHT22;13718;50.922;5.346;2024-03-23T07:32:50;12.70;99.90
25914;DHT22;13718;50.922;5.346;2024-03-23T07:35:15;12.60;99.90
25914;DHT22;13718;50.922;5.346;2024-03-23T07:37:41;12.30;99.90
25914;DHT22;13718;50.922;5.346;2024-03-23T07:40:07;12.10;99.90
25914;DHT22;13718;50.922;5.346;2024-03-23T07:42:32;12.20;99.90
25914;DHT22;13718;50.922;5.346;2024-03-23T07:44:58;11.90;99.90
25914;DHT22;13718;50.922;5.346;2024-03-23T07:47:23;11.70;99.90
25914;DHT22;13718;50.922;5.346;2024-03-23T07:49:49;11.50;99.90
25914;DHT22;13718;50.922;5.346;2024-03-23T07:52:14;11.20;99.90
25914;DHT22;13718;50.922;5.346;2024-03-23T07:54:40;10.90;99.90
25914;DHT22;13718;50.922;5.346;2024-03-23T07:57:05;10.80;99.90
25914;DHT22;13718;50.922;5.346;2024-03-23T07:59:31;10.90;99.90
25914;DHT22;13718;50.922;5.346;2024-03-23T08:01:59;11.60;99.90
25914;DHT22;13718;50.922;5.346;2024-03-23T08:04:25;12.30;99.90
25914;DHT22;13718;50.922;5.346;2024-03-23T08:06:50;13.00;99.90
25914;DHT22;13718;50.922;5.346;2024-03-23T08:09:16;13.70;99.90
25914;DHT22;13718;50.922;5.346;2024-03-23T08:11:41;13.70;99.90
25914;DHT22;13718;50.922;5.346;2024-03-23T08:14:09;13.30;99.90
25914;DHT22;13718;50.922;5.346;2024-03-23T08:16:35;13.20;99.90
25914;DHT22;13718;50.922;5.346;2024-03-23T08:19:00;13.10;99.90
25914;DHT22;13718;50.922;5.346;2024-03-23T08:21:28;12.60;99.90
25914;DHT22;13718;50.922;5.346;2024-03-23T08:23:54;12.20;99.90
25914;DHT22;13718;50.922;5.346;2024-03-23T08:26:19;11.80;99.90
25914;DHT22;13718;50.922;5.346;2024-03-23T08:28:45;11.60;99.90
25914;DHT22;13718;50.922;5.346;2024-03-23T08:31:11;11.30;99.90
25914;DHT22;13718;50.922;5.346;2024-03-23T08:33:36;11.00;99.90
25914;DHT22;13718;50.922;5.346;2024-03-23T08:36:03;10.80;99.90
25914;DHT22;13718;50.922;5.346;2024-03-23T08:38:29;10.90;99.90
25914;DHT22;13718;50.922;5.346;2024-03-23T08:41:04;10.90;99.90
25914;DHT22;13718;50.922;5.346;2024-03-23T08:43:31;10.90;99.90
25914;DHT22;13718;50.922;5.346;2024-03-23T08:48:32;11.30;99.90
25914;DHT22;13718;50.922;5.346;2024-03-23T08:51:02;12.30;99.90
25914;DHT22;13718;50.922;5.346;2024-03-23T08:53:28;13.70;99.90
25914;DHT22;13718;50.922;5.346;2024-03-23T08:55:54;14.80;99.90
25914;DHT22;13718;50.922;5.346;2024-03-23T08:58:19;16.30;99.90
25914;DHT22;13718;50.922;5.346;2024-03-23T09:00:46;17.10;99.90
25914;DHT22;13718;50.922;5.346;2024-03-23T09:03:12;16.50;99.90
25914;DHT22;13718;50.922;5.346;2024-03-23T09:05:40;15.20;99.90
25914;DHT22;13718;50.922;5.346;2024-03-23T09:08:06;14.30;99.90
25914;DHT22;13718;50.922;5.346;2024-03-23T09:10:34;13.60;99.90
25914;DHT22;13718;50.922;5.346;2024-03-23T09:13:00;13.10;99.90
25914;DHT22;13718;50.922;5.346;2024-03-23T09:15:25;12.80;99.90
25914;DHT22;13718;50.922;5.346;2024-03-23T09:17:51;12.90;99.90
25914;DHT22;13718;50.922;5.346;2024-03-23T09:20:16;13.00;99.90
25914;DHT22;13718;50.922;5.346;2024-03-23T09:22:42;13.00;99.90
25914;DHT22;13718;50.922;5.346;2024-03-23T09:25:07;13.00;99.90
25914;DHT22;13718;50.922;5.346;2024-03-23T09:27:33;13.10;99.90
25914;DHT22;13718;50.922;5.346;2024-03-23T09:29:58;13.00;99.90
25914;DHT22;13718;50.922;5.346;2024-03-23T09:32:24;13.30;99.90
25914;DHT22;13718;50.922;5.346;2024-03-23T09:34:49;13.30;99.90
25914;DHT22;13718;50.922;5.346;2024-03-23T09:37:15;12.90;99.90
25914;DHT22;13718;50.922;5.346;2024-03-23T09:39:40;12.60;99.90
25914;DHT22;13718;50.922;5.346;2024-03-23T09:42:07;12.50;99.90
25914;DHT22;13718;50.922;5.346;2024-03-23T09:44:32;12.50;99.90
25914;DHT22;13718;50.922;5.346;2024-03-23T09:46:58;12.60;99.90
25914;DHT22;13718;50.922;5.346;2024-03-23T09:49:24;12.60;99.90
25914;DHT22;13718;50.922;5.346;2024-03-23T09:51:50;12.50;99.90
25914;DHT22;13718;50.922;5.346;2024-03-23T09:54:16;12.60;99.90
25914;DHT22;13718;50.922;5.346;2024-03-23T09:56:41;12.60;99.90
25914;DHT22;13718;50.922;5.346;2024-03-23T09:59:07;12.60;99.90
25914;DHT22;13718;50.922;5.346;2024-03-23T10:01:32;12.40;99.90
25914;DHT22;13718;50.922;5.346;2024-03-23T10:03:58;12.10;99.90
25914;DHT22;13718;50.922;5.346;2024-03-23T10:06:23;12.00;99.90
25914;DHT22;13718;50.922;5.346;2024-03-23T10:08:52;12.10;99.90
25914;DHT22;13718;50.922;5.346;2024-03-23T10:11:18;12.20;99.90
25914;DHT22;13718;50.922;5.346;2024-03-23T10:13:44;12.50;99.90
25914;DHT22;13718;50.922;5.346;2024-03-23T10:16:11;12.70;99.90
25914;DHT22;13718;50.922;5.346;2024-03-23T10:18:40;13.10;99.90
25914;DHT22;13718;50.922;5.346;2024-03-23T10:21:06;13.10;99.90
25914;DHT22;13718;50.922;5.346;2024-03-23T10:23:32;12.90;99.90
25914;DHT22;13718;50.922;5.346;2024-03-23T10:26:12;12.40;99.90
25914;DHT22;13718;50.922;5.346;2024-03-23T10:28:49;12.30;99.90
25914;DHT22;13718;50.922;5.346;2024-03-23T10:31:15;12.10;99.90
25914;DHT22;13718;50.922;5.346;2024-03-23T10:33:44;12.10;99.90
25914;DHT22;13718;50.922;5.346;2024-03-23T10:36:09;12.10;99.90
25914;DHT22;13718;50.922;5.346;2024-03-23T10:38:35;12.20;99.90
25914;DHT22;13718;50.922;5.346;2024-03-23T10:41:01;12.40;99.90
25914;DHT22;13718;50.922;5.346;2024-03-23T10:43:27;12.60;99.90
25914;DHT22;13718;50.922;5.346;2024-03-23T10:45:53;12.60;99.90
25914;DHT22;13718;50.922;5.346;2024-03-23T10:48:18;12.90;99.90
25914;DHT22;13718;50.922;5.346;2024-03-23T10:50:43;13.20;99.90
25914;DHT22;13718;50.922;5.346;2024-03-23T10:53:09;13.40;99.90
25914;DHT22;13718;50.922;5.346;2024-03-23T10:55:34;13.50;99.90
25914;DHT22;13718;50.922;5.346;2024-03-23T10:58:00;13.50;99.90
25914;DHT22;13718;50.922;5.346;2024-03-23T11:00:26;12.90;99.90
25914;DHT22;13718;50.922;5.346;2024-03-23T11:02:51;12.00;99.90
25914;DHT22;13718;50.922;5.346;2024-03-23T11:07:50;11.30;99.90
25914;DHT22;13718;50.922;5.346;2024-03-23T11:10:29;11.20;99.90
25914;DHT22;13718;50.922;5.346;2024-03-23T11:12:58;11.20;99.90
25914;DHT22;13718;50.922;5.346;2024-03-23T11:15:23;11.40;99.90
25914;DHT22;13718;50.922;5.346;2024-03-23T11:18:07;11.70;99.90
25914;DHT22;13718;50.922;5.346;2024-03-23T11:20:37;11.80;99.90
25914;DHT22;13718;50.922;5.346;2024-03-23T11:23:04;11.70;99.90
25914;DHT22;13718;50.922;5.346;2024-03-23T11:25:30;11.90;99.90
25914;DHT22;13718;50.922;5.346;2024-03-23T11:27:56;11.80;99.90
25914;DHT22;13718;50.922;5.346;2024-03-23T11:30:26;12.00;99.90
25914;DHT22;13718;50.922;5.346;2024-03-23T11:32:52;12.20;99.90
25914;DHT22;13718;50.922;5.346;2024-03-23T11:38:07;12.40;99.90
25914;DHT22;13718;50.922;5.346;2024-03-23T11:40:33;12.30;99.90
25914;DHT22;13718;50.922;5.346;2024-03-23T11:43:00;12.00;99.90
25914;DHT22;13718;50.922;5.346;2024-03-23T11:45:25;11.80;99.90
25914;DHT22;13718;50.922;5.346;2024-03-23T11:50:29;11.40;99.90
25914;DHT22;13718;50.922;5.346;2024-03-23T11:53:05;11.20;99.90
25914;DHT22;13718;50.922;5.346;2024-03-23T11:55:38;10.90;99.90
25914;DHT22;13718;50.922;5.346;2024-03-23T11:58:04;10.80;99.90
25914;DHT22;13718;50.922;5.346;2024-03-23T12:00:29;10.60;99.90
25914;DHT22;13718;50.922;5.346;2024-03-23T12:02:59;10.80;99.90
25914;DHT22;13718;50.922;5.346;2024-03-23T12:05:26;11.00;99.90
25914;DHT22;13718;50.922;5.346;2024-03-23T12:07:51;10.90;99.90
25914;DHT22;13718;50.922;5.346;2024-03-23T12:10:18;10.60;99.90
25914;DHT22;13718;50.922;5.346;2024-03-23T12:12:44;10.30;99.90
25914;DHT22;13718;50.922;5.346;2024-03-23T12:15:10;10.10;99.90
25914;DHT22;13718;50.922;5.346;2024-03-23T12:17:37;9.90;99.90
25914;DHT22;13718;50.922;5.346;2024-03-23T12:20:03;10.00;99.90
25914;DHT22;13718;50.922;5.346;2024-03-23T12:22:29;10.30;99.90
25914;DHT22;13718;50.922;5.346;2024-03-23T12:24:59;10.60;99.90
25914;DHT22;13718;50.922;5.346;2024-03-23T12:27:25;10.80;99.90
25914;DHT22;13718;50.922;5.346;2024-03-23T12:29:50;10.80;99.90
25914;DHT22;13718;50.922;5.346;2024-03-23T12:32:16;10.80;99.90
25914;DHT22;13718;50.922;5.346;2024-03-23T12:34:41;10.80;99.90
25914;DHT22;13718;50.922;5.346;2024-03-23T12:37:07;10.90;99.90
25914;DHT22;13718;50.922;5.346;2024-03-23T12:39:33;11.10;99.90
25914;DHT22;13718;50.922;5.346;2024-03-23T12:42:00;11.20;99.90
25914;DHT22;13718;50.922;5.346;2024-03-23T12:44:26;11.30;99.90
25914;DHT22;13718;50.922;5.346;2024-03-23T12:46:51;11.30;99.90
25914;DHT22;13718;50.922;5.346;2024-03-23T12:49:17;11.20;99.90
25914;DHT22;13718;50.922;5.346;2024-03-23T12:52:00;11.20;99.90
25914;DHT22;13718;50.922;5.346;2024-03-23T12:54:26;11.10;99.90
25914;DHT22;13718;50.922;5.346;2024-03-23T12:56:52;11.20;99.90
25914;DHT22;13718;50.922;5.346;2024-03-23T12:59:17;11.30;99.90
25914;DHT22;13718;50.922;5.346;2024-03-23T13:01:44;11.50;99.90
25914;DHT22;13718;50.922;5.346;2024-03-23T13:04:09;11.30;99.90
25914;DHT22;13718;50.922;5.346;2024-03-23T13:06:35;11.30;99.90
25914;DHT22;13718;50.922;5.346;2024-03-23T13:09:01;11.30;99.90
25914;DHT22;13718;50.922;5.346;2024-03-23T13:11:27;11.10;99.90
25914;DHT22;13718;50.922;5.346;2024-03-23T13:13:52;10.80;99.90
25914;DHT22;13718;50.922;5.346;2024-03-23T13:16:18;10.90;99.90
25914;DHT22;13718;50.922;5.346;2024-03-23T13:18:43;10.90;99.90
25914;DHT22;13718;50.922;5.346;2024-03-23T13:21:09;10.90;99.90
25914;DHT22;13718;50.922;5.346;2024-03-23T13:23:34;11.00;99.90
25914;DHT22;13718;50.922;5.346;2024-03-23T13:26:01;11.10;99.90
25914;DHT22;13718;50.922;5.346;2024-03-23T13:28:26;11.00;99.90
25914;DHT22;13718;50.922;5.346;2024-03-23T13:30:52;10.70;99.90
25914;DHT22;13718;50.922;5.346;2024-03-23T13:33:18;10.50;99.90
25914;DHT22;13718;50.922;5.346;2024-03-23T13:35:53;10.40;99.90
25914;DHT22;13718;50.922;5.346;2024-03-23T13:38:18;10.40;99.90
25914;DHT22;13718;50.922;5.346;2024-03-23T13:40:51;10.50;99.90
25914;DHT22;13718;50.922;5.346;2024-03-23T13:43:16;10.90;99.90
25914;DHT22;13718;50.922;5.346;2024-03-23T13:45:42;11.30;99.90
25914;DHT22;13718;50.922;5.346;2024-03-23T13:48:07;11.50;99.90
25914;DHT22;13718;50.922;5.346;2024-03-23T13:50:33;11.80;99.90
25914;DHT22;13718;50.922;5.346;2024-03-23T13:52:59;12.00;99.90
25914;DHT22;13718;50.922;5.346;2024-03-23T13:55:24;12.10;99.90
25914;DHT22;13718;50.922;5.346;2024-03-23T13:57:50;12.10;99.90
25914;DHT22;13718;50.922;5.346;2024-03-23T14:00:16;12.30;99.90
25914;DHT22;13718;50.922;5.346;2024-03-23T14:02:43;12.70;99.90
25914;DHT22;13718;50.922;5.346;2024-03-23T14:05:09;12.70;99.90
25914;DHT22;13718;50.922;5.346;2024-03-23T14:07:34;12.80;99.90
25914;DHT22;13718;50.922;5.346;2024-03-23T14:10:03;12.60;99.90
25914;DHT22;13718;50.922;5.346;2024-03-23T14:12:30;12.50;99.90
25914;DHT22;13718;50.922;5.346;2024-03-23T14:14:55;12.40;99.90
25914;DHT22;13718;50.922;5.346;2024-03-23T14:17:21;12.30;99.90
25914;DHT22;13718;50.922;5.346;2024-03-23T14:19:46;12.00;99.90
25914;DHT22;13718;50.922;5.346;2024-03-23T14:22:12;11.60;99.90
25914;DHT22;13718;50.922;5.346;2024-03-23T14:24:37;11.10;99.90
25914;DHT22;13718;50.922;5.346;2024-03-23T14:27:04;10.90;99.90
25914;DHT22;13718;50.922;5.346;2024-03-23T14:29:30;10.70;99.90
25914;DHT22;13718;50.922;5.346;2024-03-23T14:31:56;10.60;99.90
25914;DHT22;13718;50.922;5.346;2024-03-23T14:34:22;10.60;99.90
25914;DHT22;13718;50.922;5.346;2024-03-23T14:36:47;10.70;99.90
25914;DHT22;13718;50.922;5.346;2024-03-23T14:39:13;10.90;99.90
25914;DHT22;13718;50.922;5.346;2024-03-23T14:41:40;11.10;99.90
25914;DHT22;13718;50.922;5.346;2024-03-23T14:44:05;11.50;99.90
25914;DHT22;13718;50.922;5.346;2024-03-23T14:46:31;11.90;99.90
25914;DHT22;13718;50.922;5.346;2024-03-23T14:48:56;12.10;99.90
25914;DHT22;13718;50.922;5.346;2024-03-23T14:51:23;12.40;99.90
25914;DHT22;13718;50.922;5.346;2024-03-23T14:53:48;12.70;99.90
25914;DHT22;13718;50.922;5.346;2024-03-23T14:56:14;12.70;99.90
25914;DHT22;13718;50.922;5.346;2024-03-23T14:58:41;12.50;99.90
25914;DHT22;13718;50.922;5.346;2024-03-23T15:01:07;12.20;99.90
25914;DHT22;13718;50.922;5.346;2024-03-23T15:03:36;12.00;99.90
25914;DHT22;13718;50.922;5.346;2024-03-23T15:06:01;11.80;99.90
25914;DHT22;13718;50.922;5.346;2024-03-23T15:08:27;11.60;99.90
25914;DHT22;13718;50.922;5.346;2024-03-23T15:10:53;11.40;99.90
25914;DHT22;13718;50.922;5.346;2024-03-23T15:13:19;11.20;99.90
25914;DHT22;13718;50.922;5.346;2024-03-23T15:15:44;11.10;99.90
25914;DHT22;13718;50.922;5.346;2024-03-23T15:18:13;11.00;99.90
25914;DHT22;13718;50.922;5.346;2024-03-23T15:20:51;10.90;99.90
25914;DHT22;13718;50.922;5.346;2024-03-23T15:23:16;10.80;99.90
25914;DHT22;13718;50.922;5.346;2024-03-23T15:25:42;11.00;99.90
25914;DHT22;13718;50.922;5.346;2024-03-23T15:28:07;11.20;99.90
25914;DHT22;13718;50.922;5.346;2024-03-23T15:30:32;11.30;99.90
25914;DHT22;13718;50.922;5.346;2024-03-23T15:32:59;11.40;99.90
25914;DHT22;13718;50.922;5.346;2024-03-23T15:35:24;11.40;99.90
25914;DHT22;13718;50.922;5.346;2024-03-23T15:37:50;11.30;99.90
25914;DHT22;13718;50.922;5.346;2024-03-23T15:40:15;11.20;99.90
25914;DHT22;13718;50.922;5.346;2024-03-23T15:42:41;11.10;99.90
25914;DHT22;13718;50.922;5.346;2024-03-23T15:45:07;11.00;99.90
25914;DHT22;13718;50.922;5.346;2024-03-23T15:47:33;10.80;99.90
25914;DHT22;13718;50.922;5.346;2024-03-23T15:49:58;10.80;99.90
25914;DHT22;13718;50.922;5.346;2024-03-23T15:52:24;10.80;99.90
25914;DHT22;13718;50.922;5.346;2024-03-23T15:54:49;10.80;99.90
25914;DHT22;13718;50.922;5.346;2024-03-23T15:57:15;10.90;99.90
25914;DHT22;13718;50.922;5.346;2024-03-23T15:59:41;11.00;99.90
25914;DHT22;13718;50.922;5.346;2024-03-23T16:02:06;11.00;99.90
25914;DHT22;13718;50.922;5.346;2024-03-23T16:04:32;11.00;99.90
25914;DHT22;13718;50.922;5.346;2024-03-23T16:06:57;11.10;99.90
25914;DHT22;13718;50.922;5.346;2024-03-23T16:09:23;11.00;99.90
25914;DHT22;13718;50.922;5.346;2024-03-23T16:11:48;11.10;99.90
25914;DHT22;13718;50.922;5.346;2024-03-23T16:14:14;11.00;99.90
25914;DHT22;13718;50.922;5.346;2024-03-23T16:16:39;10.90;99.90
25914;DHT22;13718;50.922;5.346;2024-03-23T16:19:05;10.80;99.90
25914;DHT22;13718;50.922;5.346;2024-03-23T16:21:30;10.70;99.90
25914;DHT22;13718;50.922;5.346;2024-03-23T16:23:56;10.70;99.90
25914;DHT22;13718;50.922;5.346;2024-03-23T16:26:23;10.70;99.90
25914;DHT22;13718;50.922;5.346;2024-03-23T16:28:49;10.70;99.90
25914;DHT22;13718;50.922;5.346;2024-03-23T16:31:15;10.70;99.90
25914;DHT22;13718;50.922;5.346;2024-03-23T16:33:41;10.60;99.90
25914;DHT22;13718;50.922;5.346;2024-03-23T16:36:08;10.50;99.90